Date,TemperatureHighF,TemperatureAvgF,TemperatureLowF,DewpointHighF,DewpointAvgF,DewpointLowF,HumidityHigh,HumidityAvg,HumidityLow,PressureMaxIn,PressureMinIn,WindSpeedMaxMPH,WindSpeedAvgMPH,GustSpeedMaxMPH,PrecipitationSumIn
2013-4-1,43.2,35.9,28.4,30.7,23.5,17.6,86,62,36,30.28,29.99,18,10,25,0.00
2013-4-2,47.2,34.4,22.1,25.1,20.5,14.3,88,61,28,30.38,30.28,16,5,19,0.00
2013-4-3,50.4,36.6,21.8,23.1,20.3,17.6,87,55,30,30.47,30.31,12,4,18,0.00
2013-4-4,60.4,44.2,28.7,29.9,25.1,21.1,80,50,27,30.30,30.02,8,3,11,0.00
2013-4-5,62.0,48.2,32.4,35.6,31.1,25.7,89,55,29,30.21,30.02,16,5,18,0.00
2013-4-6,73.8,58.9,45.7,53.7,38.8,26.1,78,49,30,30.03,29.63,25,15,34,0.12
2013-4-7,71.5,56.0,39.7,49.4,45.0,37.6,94,69,41,29.93,29.74,13,4,15,0.00
2013-4-8,72.2,63.1,55.6,62.9,57.7,47.1,95,83,63,29.83,29.56,20,8,23,0.60
2013-4-9,76.0,67.6,60.8,64.7,60.9,57.4,90,80,64,29.83,29.75,20,9,24,0.00
2013-4-10,66.6,49.9,43.9,61.6,48.3,42.1,98,94,84,29.89,29.63,16,7,21,1.42
2013-4-11,49.0,44.4,37.3,48.5,41.5,32.4,98,90,79,29.69,29.61,18,11,20,0.07
2013-4-12,43.7,39.5,37.0,36.5,34.8,32.6,91,83,72,29.96,29.66,18,11,22,0.00
2013-4-13,51.4,43.5,35.8,40.7,34.1,28.7,83,70,52,30.04,29.92,16,9,18,0.00
2013-4-14,76.1,60.8,46.4,56.3,47.9,37.3,86,65,42,29.93,29.54,22,14,30,0.01
2013-4-15,57.6,53.4,42.9,55.2,48.8,38.8,97,85,69,29.99,29.70,13,6,33,0.48
2013-4-16,51.8,46.3,40.9,42.8,39.7,36.6,93,79,61,30.20,29.95,9,4,11,0.22
2013-4-17,59.0,49.4,44.0,58.4,46.3,37.3,98,89,71,30.20,29.66,18,10,28,3.86
2013-4-18,63.3,52.6,38.3,61.5,50.5,33.0,99,93,79,29.70,29.46,26,12,32,1.98
2013-4-19,43.1,38.4,34.1,36.0,31.9,29.8,87,78,64,30.07,29.66,23,16,27,0.01
2013-4-20,50.5,39.7,31.3,35.6,30.9,27.8,89,72,43,30.37,30.07,10,4,11,0.00
2013-4-21,58.8,48.1,37.3,45.8,38.5,31.9,83,70,56,30.43,30.25,21,13,24,0.00
2013-4-22,67.6,56.1,42.0,50.5,42.6,36.3,81,63,40,30.27,29.97,17,8,20,0.01
2013-4-23,57.1,44.4,38.2,50.6,42.1,36.9,96,92,77,30.04,29.92,17,6,21,0.82
2013-4-24,50.4,41.7,35.4,38.1,34.5,30.6,95,77,47,30.19,30.01,18,10,19,0.06
2013-4-25,58.0,47.3,37.9,41.0,35.3,30.5,87,65,43,30.33,30.16,21,9,25,0.00
2013-4-26,62.1,52.8,43.3,49.8,44.0,36.4,83,72,60,30.33,30.23,18,9,21,0.00
2013-4-27,55.9,51.1,42.8,50.7,47.5,41.1,96,88,72,30.28,29.97,13,4,16,0.06
2013-4-28,67.0,57.1,51.3,56.5,52.4,49.3,97,85,66,29.96,29.84,12,5,12,0.00
2013-4-29,79.1,63.3,47.4,64.7,55.9,46.0,99,78,54,29.89,29.68,17,10,23,0.00
2013-4-30,86.6,74.1,62.7,63.2,59.0,53.6,91,63,34,29.89,29.69,20,12,26,0.00